sensor_id;sensor_type;location;lat;lon;timestamp;pressure;altitude;pressure_sealevel;temperature;humidity
76229;BME280;65021;53.174;18.160;2023-02-01T00:00:48;99834.58;;;2.47;84.79
76229;BME280;65021;53.174;18.160;2023-02-01T00:03:26;99837.35;;;2.50;84.68
76229;BME280;65021;53.174;18.160;2023-02-01T00:05:56;99833.92;;;2.50;84.58
76229;BME280;65021;53.174;18.160;2023-02-01T00:08:26;99842.77;;;2.45;84.59
76229;BME280;65021;53.174;18.160;2023-02-01T00:11:03;99839.88;;;2.40;84.57
76229;BME280;65021;53.174;18.160;2023-02-01T00:13:32;99848.27;;;2.38;84.50
76229;BME280;65021;53.174;18.160;2023-02-01T00:16:09;99856.43;;;2.33;84.54
76229;BME280;65021;53.174;18.160;2023-02-01T00:18:36;99859.89;;;2.35;84.48
76229;BME280;65021;53.174;18.160;2023-02-01T00:21:03;99868.13;;;2.39;84.46
76229;BME280;65021;53.174;18.160;2023-02-01T00:23:34;99873.44;;;2.44;84.50
76229;BME280;65021;53.174;18.160;2023-02-01T00:26:02;99870.59;;;2.50;84.53
76229;BME280;65021;53.174;18.160;2023-02-01T00:28:29;99880.33;;;2.56;84.39
76229;BME280;65021;53.174;18.160;2023-02-01T00:30:57;99873.67;;;2.61;84.33
76229;BME280;65021;53.174;18.160;2023-02-01T00:33:24;99877.03;;;2.67;84.14
76229;BME280;65021;53.174;18.160;2023-02-01T00:35:51;99874.66;;;2.69;84.07
76229;BME280;65021;53.174;18.160;2023-02-01T00:38:21;99877.14;;;2.71;83.97
76229;BME280;65021;53.174;18.160;2023-02-01T00:40:48;99876.09;;;2.72;83.90
76229;BME280;65021;53.174;18.160;2023-02-01T00:43:15;99888.53;;;2.73;83.92
76229;BME280;65021;53.174;18.160;2023-02-01T00:45:41;99885.83;;;2.73;83.76
76229;BME280;65021;53.174;18.160;2023-02-01T00:48:08;99881.94;;;2.73;83.73
76229;BME280;65021;53.174;18.160;2023-02-01T00:50:34;99877.47;;;2.74;83.74
76229;BME280;65021;53.174;18.160;2023-02-01T00:53:01;99884.02;;;2.74;83.66
76229;BME280;65021;53.174;18.160;2023-02-01T00:55:27;99877.55;;;2.75;83.68
76229;BME280;65021;53.174;18.160;2023-02-01T00:57:54;99880.30;;;2.75;83.63
76229;BME280;65021;53.174;18.160;2023-02-01T01:00:20;99877.77;;;2.74;83.75
76229;BME280;65021;53.174;18.160;2023-02-01T01:02:47;99878.65;;;2.73;83.69
76229;BME280;65021;53.174;18.160;2023-02-01T01:05:14;99877.43;;;2.73;83.80
76229;BME280;65021;53.174;18.160;2023-02-01T01:07:40;99888.84;;;2.70;84.01
76229;BME280;65021;53.174;18.160;2023-02-01T01:10:07;99882.06;;;2.66;84.26
76229;BME280;65021;53.174;18.160;2023-02-01T01:12:34;99883.94;;;2.61;84.43
76229;BME280;65021;53.174;18.160;2023-02-01T01:15:01;99891.94;;;2.56;84.61
76229;BME280;65021;53.174;18.160;2023-02-01T01:17:27;99888.86;;;2.53;84.69
76229;BME280;65021;53.174;18.160;2023-02-01T01:19:54;99887.43;;;2.50;84.74
76229;BME280;65021;53.174;18.160;2023-02-01T01:22:21;99890.70;;;2.48;84.94
76229;BME280;65021;53.174;18.160;2023-02-01T01:24:47;99890.82;;;2.46;84.95
76229;BME280;65021;53.174;18.160;2023-02-01T01:27:14;99886.38;;;2.43;85.32
76229;BME280;65021;53.174;18.160;2023-02-01T01:29:41;99884.71;;;2.41;85.31
76229;BME280;65021;53.174;18.160;2023-02-01T01:32:07;99884.64;;;2.40;85.19
76229;BME280;65021;53.174;18.160;2023-02-01T01:34:34;99888.34;;;2.39;85.27
76229;BME280;65021;53.174;18.160;2023-02-01T01:37:00;99884.73;;;2.37;85.24
76229;BME280;65021;53.174;18.160;2023-02-01T01:39:27;99882.45;;;2.37;85.24
76229;BME280;65021;53.174;18.160;2023-02-01T01:41:54;99880.77;;;2.37;85.37
76229;BME280;65021;53.174;18.160;2023-02-01T01:47:21;99881.70;;;2.33;85.73
76229;BME280;65021;53.174;18.160;2023-02-01T01:49:48;99881.54;;;2.30;85.64
76229;BME280;65021;53.174;18.160;2023-02-01T01:52:14;99879.31;;;2.28;85.49
76229;BME280;65021;53.174;18.160;2023-02-01T01:54:44;99881.13;;;2.26;85.48
76229;BME280;65021;53.174;18.160;2023-02-01T01:57:15;99884.11;;;2.27;85.53
76229;BME280;65021;53.174;18.160;2023-02-01T01:59:47;99879.02;;;2.27;85.66
76229;BME280;65021;53.174;18.160;2023-02-01T02:02:16;99874.29;;;2.29;85.69
76229;BME280;65021;53.174;18.160;2023-02-01T02:04:43;99876.60;;;2.33;85.95
76229;BME280;65021;53.174;18.160;2023-02-01T02:07:14;99874.44;;;2.36;85.98
76229;BME280;65021;53.174;18.160;2023-02-01T02:09:42;99876.77;;;2.42;85.86
76229;BME280;65021;53.174;18.160;2023-02-01T02:12:09;99876.17;;;2.46;85.82
76229;BME280;65021;53.174;18.160;2023-02-01T02:14:36;99873.20;;;2.51;85.61
76229;BME280;65021;53.174;18.160;2023-02-01T02:22:56;99876.79;;;2.54;85.49
76229;BME280;65021;53.174;18.160;2023-02-01T02:28:35;99877.50;;;2.57;85.36
76229;BME280;65021;53.174;18.160;2023-02-01T02:39:39;99873.85;;;2.62;85.08
76229;BME280;65021;53.174;18.160;2023-02-01T02:53:21;99878.08;;;2.59;84.47
76229;BME280;65021;53.174;18.160;2023-02-01T02:56:09;99867.20;;;2.62;84.13
76229;BME280;65021;53.174;18.160;2023-02-01T02:58:55;99866.52;;;2.66;83.63
76229;BME280;65021;53.174;18.160;2023-02-01T03:01:41;99866.73;;;2.69;83.03
76229;BME280;65021;53.174;18.160;2023-02-01T03:04:26;99875.35;;;2.67;82.94
76229;BME280;65021;53.174;18.160;2023-02-01T03:06:53;99883.11;;;2.65;82.96
76229;BME280;65021;53.174;18.160;2023-02-01T03:09:26;99883.78;;;2.65;82.87
76229;BME280;65021;53.174;18.160;2023-02-01T03:12:00;99894.42;;;2.68;82.99
76229;BME280;65021;53.174;18.160;2023-02-01T03:14:50;99891.20;;;2.72;82.77
76229;BME280;65021;53.174;18.160;2023-02-01T03:17:22;99891.27;;;2.76;82.79
76229;BME280;65021;53.174;18.160;2023-02-01T03:19:53;99894.79;;;2.82;82.52
76229;BME280;65021;53.174;18.160;2023-02-01T03:22:24;99892.32;;;2.86;81.99
76229;BME280;65021;53.174;18.160;2023-02-01T03:24:54;99892.34;;;2.91;81.91
76229;BME280;65021;53.174;18.160;2023-02-01T03:27:27;99890.98;;;2.93;81.40
76229;BME280;65021;53.174;18.160;2023-02-01T03:32:29;99894.34;;;2.96;80.89
76229;BME280;65021;53.174;18.160;2023-02-01T03:35:16;99897.86;;;3.00;80.84
76229;BME280;65021;53.174;18.160;2023-02-01T03:37:44;99892.28;;;3.00;81.13
76229;BME280;65021;53.174;18.160;2023-02-01T03:40:11;99894.10;;;3.00;81.38
76229;BME280;65021;53.174;18.160;2023-02-01T03:42:44;99890.89;;;3.00;81.72
76229;BME280;65021;53.174;18.160;2023-02-01T03:45:33;99884.56;;;3.00;81.62
76229;BME280;65021;53.174;18.160;2023-02-01T03:48:02;99882.05;;;2.99;81.60
76229;BME280;65021;53.174;18.160;2023-02-01T03:50:30;99879.98;;;2.98;81.35
76229;BME280;65021;53.174;18.160;2023-02-01T03:53:13;99878.36;;;2.99;80.53
76229;BME280;65021;53.174;18.160;2023-02-01T03:55:41;99884.00;;;3.05;80.59
76229;BME280;65021;53.174;18.160;2023-02-01T03:58:15;99876.65;;;3.03;80.84
76229;BME280;65021;53.174;18.160;2023-02-01T04:00:53;99866.91;;;3.00;80.31
76229;BME280;65021;53.174;18.160;2023-02-01T04:03:20;99869.65;;;3.00;80.65
76229;BME280;65021;53.174;18.160;2023-02-01T04:05:49;99862.80;;;3.03;80.09
76229;BME280;65021;53.174;18.160;2023-02-01T04:08:15;99859.23;;;3.08;80.12
76229;BME280;65021;53.174;18.160;2023-02-01T04:10:42;99862.09;;;3.08;80.05
76229;BME280;65021;53.174;18.160;2023-02-01T04:13:10;99856.48;;;3.06;80.36
76229;BME280;65021;53.174;18.160;2023-02-01T04:15:37;99860.48;;;3.04;80.40
76229;BME280;65021;53.174;18.160;2023-02-01T04:18:03;99862.00;;;3.04;79.94
76229;BME280;65021;53.174;18.160;2023-02-01T04:20:31;99862.00;;;3.02;80.21
76229;BME280;65021;53.174;18.160;2023-02-01T04:22:57;99859.69;;;3.01;80.42
76229;BME280;65021;53.174;18.160;2023-02-01T04:25:24;99860.98;;;2.98;80.24
76229;BME280;65021;53.174;18.160;2023-02-01T04:27:50;99861.38;;;2.99;80.26
76229;BME280;65021;53.174;18.160;2023-02-01T04:30:17;99864.52;;;2.96;80.49
76229;BME280;65021;53.174;18.160;2023-02-01T04:32:44;99863.48;;;2.95;80.52
76229;BME280;65021;53.174;18.160;2023-02-01T04:35:10;99865.98;;;2.94;80.49
76229;BME280;65021;53.174;18.160;2023-02-01T04:37:38;99863.99;;;2.95;80.48
76229;BME280;65021;53.174;18.160;2023-02-01T04:40:05;99872.17;;;2.95;80.72
76229;BME280;65021;53.174;18.160;2023-02-01T04:42:32;99869.48;;;2.94;81.12
76229;BME280;65021;53.174;18.160;2023-02-01T04:44:59;99876.38;;;2.89;81.52
76229;BME280;65021;53.174;18.160;2023-02-01T04:47:25;99882.11;;;2.85;81.86
76229;BME280;65021;53.174;18.160;2023-02-01T04:49:52;99877.15;;;2.80;82.20
76229;BME280;65021;53.174;18.160;2023-02-01T04:52:19;99868.18;;;2.76;82.27
76229;BME280;65021;53.174;18.160;2023-02-01T04:54:45;99861.48;;;2.72;82.41
76229;BME280;65021;53.174;18.160;2023-02-01T04:57:12;99856.60;;;2.69;82.71
76229;BME280;65021;53.174;18.160;2023-02-01T04:59:39;99851.51;;;2.66;82.83
76229;BME280;65021;53.174;18.160;2023-02-01T05:02:06;99854.91;;;2.67;82.91
76229;BME280;65021;53.174;18.160;2023-02-01T05:04:32;99853.35;;;2.66;82.91
76229;BME280;65021;53.174;18.160;2023-02-01T05:06:59;99851.67;;;2.65;82.85
76229;BME280;65021;53.174;18.160;2023-02-01T05:09:25;99848.66;;;2.67;82.85
76229;BME280;65021;53.174;18.160;2023-02-01T05:11:52;99856.01;;;2.71;82.99
76229;BME280;65021;53.174;18.160;2023-02-01T05:14:37;99855.88;;;2.72;82.82
76229;BME280;65021;53.174;18.160;2023-02-01T05:17:04;99854.62;;;2.70;82.80
76229;BME280;65021;53.174;18.160;2023-02-01T05:19:30;99853.14;;;2.69;82.65
76229;BME280;65021;53.174;18.160;2023-02-01T05:21:57;99847.19;;;2.70;82.59
76229;BME280;65021;53.174;18.160;2023-02-01T05:24:23;99846.59;;;2.69;82.49
76229;BME280;65021;53.174;18.160;2023-02-01T05:26:50;99842.91;;;2.69;82.29
76229;BME280;65021;53.174;18.160;2023-02-01T05:29:17;99846.54;;;2.72;82.21
76229;BME280;65021;53.174;18.160;2023-02-01T05:31:45;99845.15;;;2.74;82.06
76229;BME280;65021;53.174;18.160;2023-02-01T05:34:12;99842.42;;;2.77;82.11
76229;BME280;65021;53.174;18.160;2023-02-01T05:36:39;99843.95;;;2.82;81.84
76229;BME280;65021;53.174;18.160;2023-02-01T05:39:05;99846.04;;;2.86;81.62
76229;BME280;65021;53.174;18.160;2023-02-01T05:41:32;99847.28;;;2.92;81.51
76229;BME280;65021;53.174;18.160;2023-02-01T05:43:58;99850.98;;;2.96;81.50
76229;BME280;65021;53.174;18.160;2023-02-01T05:46:25;99850.75;;;2.99;81.15
76229;BME280;65021;53.174;18.160;2023-02-01T05:48:52;99851.23;;;3.03;81.16
76229;BME280;65021;53.174;18.160;2023-02-01T05:51:18;99860.55;;;3.06;81.02
76229;BME280;65021;53.174;18.160;2023-02-01T05:53:45;99860.25;;;3.07;81.10
76229;BME280;65021;53.174;18.160;2023-02-01T05:56:12;99861.52;;;3.08;81.01
76229;BME280;65021;53.174;18.160;2023-02-01T05:58:38;99854.14;;;3.10;80.77
76229;BME280;65021;53.174;18.160;2023-02-01T06:01:05;99857.52;;;3.09;80.79
76229;BME280;65021;53.174;18.160;2023-02-01T06:03:31;99850.06;;;3.08;80.68
76229;BME280;65021;53.174;18.160;2023-02-01T06:05:58;99850.94;;;3.03;81.00
76229;BME280;65021;53.174;18.160;2023-02-01T06:08:26;99857.72;;;2.98;81.09
76229;BME280;65021;53.174;18.160;2023-02-01T06:11:00;99853.17;;;2.96;81.21
76229;BME280;65021;53.174;18.160;2023-02-01T06:13:27;99855.19;;;2.98;81.30
76229;BME280;65021;53.174;18.160;2023-02-01T06:15:53;99859.73;;;2.97;81.26
76229;BME280;65021;53.174;18.160;2023-02-01T06:18:20;99860.30;;;2.97;81.28
76229;BME280;65021;53.174;18.160;2023-02-01T06:20:52;99863.05;;;2.95;81.31
76229;BME280;65021;53.174;18.160;2023-02-01T06:23:19;99863.35;;;2.94;81.28
76229;BME280;65021;53.174;18.160;2023-02-01T06:25:46;99863.24;;;2.93;81.20
76229;BME280;65021;53.174;18.160;2023-02-01T06:28:13;99871.83;;;2.92;81.22
76229;BME280;65021;53.174;18.160;2023-02-01T06:30:40;99870.42;;;2.91;81.37
76229;BME280;65021;53.174;18.160;2023-02-01T06:33:09;99870.09;;;2.91;81.23
76229;BME280;65021;53.174;18.160;2023-02-01T06:35:36;99871.27;;;2.91;81.22
76229;BME280;65021;53.174;18.160;2023-02-01T06:38:03;99867.59;;;2.90;81.33
76229;BME280;65021;53.174;18.160;2023-02-01T06:40:29;99865.44;;;2.93;81.21
76229;BME280;65021;53.174;18.160;2023-02-01T06:42:56;99864.41;;;2.95;81.22
76229;BME280;65021;53.174;18.160;2023-02-01T06:45:24;99865.05;;;2.97;81.17
76229;BME280;65021;53.174;18.160;2023-02-01T06:47:51;99866.00;;;2.98;81.15
76229;BME280;65021;53.174;18.160;2023-02-01T06:50:17;99865.02;;;3.01;80.94
76229;BME280;65021;53.174;18.160;2023-02-01T06:52:44;99859.42;;;3.04;80.72
76229;BME280;65021;53.174;18.160;2023-02-01T06:55:11;99862.58;;;3.06;80.71
76229;BME280;65021;53.174;18.160;2023-02-01T06:57:37;99865.04;;;3.09;80.59
76229;BME280;65021;53.174;18.160;2023-02-01T07:00:05;99856.54;;;3.12;80.57
76229;BME280;65021;53.174;18.160;2023-02-01T07:02:31;99855.33;;;3.15;80.57
76229;BME280;65021;53.174;18.160;2023-02-01T07:04:58;99863.94;;;3.18;80.49
76229;BME280;65021;53.174;18.160;2023-02-01T07:07:24;99862.66;;;3.20;80.18
76229;BME280;65021;53.174;18.160;2023-02-01T07:09:51;99868.84;;;3.23;79.87
76229;BME280;65021;53.174;18.160;2023-02-01T07:12:18;99862.58;;;3.26;79.74
76229;BME280;65021;53.174;18.160;2023-02-01T07:14:45;99868.98;;;3.28;79.75
76229;BME280;65021;53.174;18.160;2023-02-01T07:17:11;99863.09;;;3.31;79.68
76229;BME280;65021;53.174;18.160;2023-02-01T07:19:38;99860.10;;;3.36;79.66
76229;BME280;65021;53.174;18.160;2023-02-01T07:22:04;99855.18;;;3.39;79.44
76229;BME280;65021;53.174;18.160;2023-02-01T07:24:31;99854.84;;;3.40;79.27
76229;BME280;65021;53.174;18.160;2023-02-01T07:26:59;99860.43;;;3.42;78.81
76229;BME280;65021;53.174;18.160;2023-02-01T07:29:26;99861.96;;;3.43;78.76
76229;BME280;65021;53.174;18.160;2023-02-01T07:31:52;99861.47;;;3.45;78.69
76229;BME280;65021;53.174;18.160;2023-02-01T07:34:19;99863.64;;;3.49;78.61
76229;BME280;65021;53.174;18.160;2023-02-01T07:36:46;99862.16;;;3.56;78.46
76229;BME280;65021;53.174;18.160;2023-02-01T07:39:12;99862.19;;;3.62;78.10
76229;BME280;65021;53.174;18.160;2023-02-01T07:41:39;99870.13;;;3.65;78.03
76229;BME280;65021;53.174;18.160;2023-02-01T07:44:05;99860.51;;;3.61;78.13
76229;BME280;65021;53.174;18.160;2023-02-01T07:46:32;99857.73;;;3.58;78.02
76229;BME280;65021;53.174;18.160;2023-02-01T07:48:58;99853.96;;;3.55;78.02
76229;BME280;65021;53.174;18.160;2023-02-01T07:51:25;99855.84;;;3.57;78.04
76229;BME280;65021;53.174;18.160;2023-02-01T07:53:51;99859.14;;;3.63;77.97
76229;BME280;65021;53.174;18.160;2023-02-01T07:56:19;99856.86;;;3.67;77.86
76229;BME280;65021;53.174;18.160;2023-02-01T07:58:54;99851.50;;;3.71;77.83
76229;BME280;65021;53.174;18.160;2023-02-01T08:01:28;99852.81;;;3.76;77.45
76229;BME280;65021;53.174;18.160;2023-02-01T08:03:57;99847.16;;;3.85;77.28
76229;BME280;65021;53.174;18.160;2023-02-01T08:06:25;99841.88;;;3.93;77.22
76229;BME280;65021;53.174;18.160;2023-02-01T08:08:53;99837.40;;;4.01;76.71
76229;BME280;65021;53.174;18.160;2023-02-01T08:11:20;99840.98;;;4.08;75.81
76229;BME280;65021;53.174;18.160;2023-02-01T08:13:48;99853.76;;;4.15;76.22
76229;BME280;65021;53.174;18.160;2023-02-01T08:16:16;99858.66;;;4.23;76.33
76229;BME280;65021;53.174;18.160;2023-02-01T08:18:44;99856.48;;;4.29;76.10
76229;BME280;65021;53.174;18.160;2023-02-01T08:21:13;99859.27;;;4.34;75.76
76229;BME280;65021;53.174;18.160;2023-02-01T08:23:42;99853.27;;;4.44;76.26
76229;BME280;65021;53.174;18.160;2023-02-01T08:28:48;99857.02;;;4.56;75.46
76229;BME280;65021;53.174;18.160;2023-02-01T08:31:18;99857.52;;;4.60;75.58
76229;BME280;65021;53.174;18.160;2023-02-01T08:33:53;99858.58;;;4.63;75.39
76229;BME280;65021;53.174;18.160;2023-02-01T08:36:20;99854.05;;;4.64;75.19
76229;BME280;65021;53.174;18.160;2023-02-01T08:38:48;99860.83;;;4.72;75.25
76229;BME280;65021;53.174;18.160;2023-02-01T08:41:17;99854.45;;;4.80;75.19
76229;BME280;65021;53.174;18.160;2023-02-01T08:43:45;99861.45;;;4.88;75.27
76229;BME280;65021;53.174;18.160;2023-02-01T08:46:12;99865.02;;;4.90;74.56
76229;BME280;65021;53.174;18.160;2023-02-01T08:48:39;99858.80;;;4.93;74.88
76229;BME280;65021;53.174;18.160;2023-02-01T08:51:11;99856.66;;;4.91;74.94
76229;BME280;65021;53.174;18.160;2023-02-01T08:53:48;99860.52;;;4.88;75.22
76229;BME280;65021;53.174;18.160;2023-02-01T08:56:16;99855.17;;;4.86;75.12
76229;BME280;65021;53.174;18.160;2023-02-01T08:58:44;99863.64;;;4.83;75.55
76229;BME280;65021;53.174;18.160;2023-02-01T09:01:15;99862.91;;;4.81;75.42
76229;BME280;65021;53.174;18.160;2023-02-01T09:03:43;99862.10;;;4.81;75.21
76229;BME280;65021;53.174;18.160;2023-02-01T09:06:12;99877.06;;;4.87;74.89
76229;BME280;65021;53.174;18.160;2023-02-01T09:08:40;99878.33;;;4.94;75.24
76229;BME280;65021;53.174;18.160;2023-02-01T09:11:12;99879.59;;;5.01;75.23
76229;BME280;65021;53.174;18.160;2023-02-01T09:13:40;99882.18;;;5.10;74.93
76229;BME280;65021;53.174;18.160;2023-02-01T09:16:07;99879.11;;;5.02;74.65
76229;BME280;65021;53.174;18.160;2023-02-01T09:18:34;99886.70;;;5.07;74.96
76229;BME280;65021;53.174;18.160;2023-02-01T09:21:05;99892.17;;;5.10;74.68
76229;BME280;65021;53.174;18.160;2023-02-01T09:23:33;99890.67;;;5.11;74.98
76229;BME280;65021;53.174;18.160;2023-02-01T09:26:04;99892.54;;;5.06;74.92
76229;BME280;65021;53.174;18.160;2023-02-01T09:28:31;99885.56;;;5.06;75.18
76229;BME280;65021;53.174;18.160;2023-02-01T09:30:58;99889.14;;;4.99;75.39
76229;BME280;65021;53.174;18.160;2023-02-01T09:33:27;99893.70;;;4.87;75.60
76229;BME280;65021;53.174;18.160;2023-02-01T09:35:59;99894.58;;;4.72;75.64
76229;BME280;65021;53.174;18.160;2023-02-01T09:38:27;99896.20;;;4.63;76.25
76229;BME280;65021;53.174;18.160;2023-02-01T09:40:55;99896.14;;;4.56;76.37
76229;BME280;65021;53.174;18.160;2023-02-01T09:48:49;99896.00;;;4.46;76.93
76229;BME280;65021;53.174;18.160;2023-02-01T09:51:27;99887.70;;;4.50;76.94
76229;BME280;65021;53.174;18.160;2023-02-01T09:56:34;99888.15;;;4.59;76.84
76229;BME280;65021;53.174;18.160;2023-02-01T09:59:20;99886.29;;;4.66;76.80
76229;BME280;65021;53.174;18.160;2023-02-01T10:01:51;99890.48;;;4.67;76.78
76229;BME280;65021;53.174;18.160;2023-02-01T10:04:18;99886.96;;;4.81;76.86
76229;BME280;65021;53.174;18.160;2023-02-01T10:17:28;99882.74;;;5.21;76.41
76229;BME280;65021;53.174;18.160;2023-02-01T10:22:40;99872.23;;;5.36;75.69
76229;BME280;65021;53.174;18.160;2023-02-01T10:25:26;99870.89;;;5.35;75.85
76229;BME280;65021;53.174;18.160;2023-02-01T10:27:54;99869.05;;;5.40;75.99
76229;BME280;65021;53.174;18.160;2023-02-01T10:30:25;99863.98;;;5.40;75.65
76229;BME280;65021;53.174;18.160;2023-02-01T10:33:16;99861.48;;;5.44;75.73
76229;BME280;65021;53.174;18.160;2023-02-01T10:35:45;99851.07;;;5.50;75.42
76229;BME280;65021;53.174;18.160;2023-02-01T10:38:20;99850.54;;;5.60;75.25
76229;BME280;65021;53.174;18.160;2023-02-01T10:40:49;99845.58;;;5.68;75.33
76229;BME280;65021;53.174;18.160;2023-02-01T10:43:15;99852.16;;;5.75;75.05
76229;BME280;65021;53.174;18.160;2023-02-01T10:45:42;99843.50;;;5.83;74.89
76229;BME280;65021;53.174;18.160;2023-02-01T10:48:09;99845.83;;;5.92;74.55
76229;BME280;65021;53.174;18.160;2023-02-01T10:50:48;99843.20;;;6.00;73.64
76229;BME280;65021;53.174;18.160;2023-02-01T10:53:50;99843.39;;;6.08;74.22
76229;BME280;65021;53.174;18.160;2023-02-01T10:56:24;99836.91;;;6.25;73.38
76229;BME280;65021;53.174;18.160;2023-02-01T10:59:00;99838.36;;;6.45;73.57
76229;BME280;65021;53.174;18.160;2023-02-01T11:01:40;99834.52;;;6.69;73.46
76229;BME280;65021;53.174;18.160;2023-02-01T11:04:14;99827.98;;;6.81;72.66
76229;BME280;65021;53.174;18.160;2023-02-01T11:06:48;99838.04;;;6.97;72.23
76229;BME280;65021;53.174;18.160;2023-02-01T11:09:22;99836.89;;;6.97;71.06
76229;BME280;65021;53.174;18.160;2023-02-01T11:14:37;99831.59;;;6.85;71.40
76229;BME280;65021;53.174;18.160;2023-02-01T11:17:20;99829.61;;;6.74;72.01
76229;BME280;65021;53.174;18.160;2023-02-01T11:20:06;99832.92;;;6.59;71.98
76229;BME280;65021;53.174;18.160;2023-02-01T11:22:36;99837.12;;;6.36;71.94
76229;BME280;65021;53.174;18.160;2023-02-01T11:25:08;99834.42;;;6.20;72.41
76229;BME280;65021;53.174;18.160;2023-02-01T11:27:35;99834.92;;;6.04;72.61
76229;BME280;65021;53.174;18.160;2023-02-01T11:30:03;99840.70;;;5.92;73.18
76229;BME280;65021;53.174;18.160;2023-02-01T11:32:30;99842.35;;;5.84;73.56
76229;BME280;65021;53.174;18.160;2023-02-01T11:35:02;99845.48;;;5.81;73.62
76229;BME280;65021;53.174;18.160;2023-02-01T11:37:33;99837.78;;;5.82;73.68
76229;BME280;65021;53.174;18.160;2023-02-01T11:40:23;99842.63;;;5.85;73.53
76229;BME280;65021;53.174;18.160;2023-02-01T11:42:58;99839.37;;;5.86;73.90
76229;BME280;65021;53.174;18.160;2023-02-01T11:45:29;99843.81;;;5.82;73.69
76229;BME280;65021;53.174;18.160;2023-02-01T11:47:58;99838.15;;;5.83;73.83
76229;BME280;65021;53.174;18.160;2023-02-01T11:53:27;99828.20;;;5.88;73.75
76229;BME280;65021;53.174;18.160;2023-02-01T12:12:19;99798.28;;;6.01;72.25
76229;BME280;65021;53.174;18.160;2023-02-01T12:15:03;99803.52;;;6.06;72.00
76229;BME280;65021;53.174;18.160;2023-02-01T12:17:48;99803.88;;;6.03;71.60
76229;BME280;65021;53.174;18.160;2023-02-01T12:23:41;99809.12;;;5.95;71.80
76229;BME280;65021;53.174;18.160;2023-02-01T12:29:05;99806.80;;;5.83;72.01
76229;BME280;65021;53.174;18.160;2023-02-01T12:38:05;99800.73;;;5.43;72.60
76229;BME280;65021;53.174;18.160;2023-02-01T12:46:14;99797.67;;;5.38;73.37
76229;BME280;65021;53.174;18.160;2023-02-01T12:51:31;99801.29;;;5.46;73.60
76229;BME280;65021;53.174;18.160;2023-02-01T12:54:27;99795.29;;;5.52;73.41
76229;BME280;65021;53.174;18.160;2023-02-01T12:57:00;99795.17;;;5.54;72.86
76229;BME280;65021;53.174;18.160;2023-02-01T12:59:40;99795.41;;;5.55;73.19
76229;BME280;65021;53.174;18.160;2023-02-01T13:02:47;99797.92;;;5.72;72.87
76229;BME280;65021;53.174;18.160;2023-02-01T13:05:20;99804.38;;;5.78;72.18
76229;BME280;65021;53.174;18.160;2023-02-01T13:07:58;99794.20;;;5.88;72.48
76229;BME280;65021;53.174;18.160;2023-02-01T13:10:37;99794.84;;;5.89;72.00
76229;BME280;65021;53.174;18.160;2023-02-01T13:13:14;99803.67;;;5.98;72.33
76229;BME280;65021;53.174;18.160;2023-02-01T13:15:47;99807.73;;;6.07;72.26
76229;BME280;65021;53.174;18.160;2023-02-01T13:18:18;99803.06;;;5.96;72.06
76229;BME280;65021;53.174;18.160;2023-02-01T13:20:51;99813.46;;;5.86;72.47
76229;BME280;65021;53.174;18.160;2023-02-01T13:23:33;99815.30;;;5.72;72.13
76229;BME280;65021;53.174;18.160;2023-02-01T13:26:01;99812.52;;;5.60;72.03
76229;BME280;65021;53.174;18.160;2023-02-01T13:28:51;99815.85;;;5.55;72.18
76229;BME280;65021;53.174;18.160;2023-02-01T13:31:52;99825.97;;;5.45;72.35
76229;BME280;65021;53.174;18.160;2023-02-01T13:34:51;99827.73;;;5.35;72.51
76229;BME280;65021;53.174;18.160;2023-02-01T13:43:00;99831.46;;;5.30;72.92
76229;BME280;65021;53.174;18.160;2023-02-01T13:45:33;99831.39;;;5.33;73.03
76229;BME280;65021;53.174;18.160;2023-02-01T13:48:05;99827.73;;;5.34;72.94
76229;BME280;65021;53.174;18.160;2023-02-01T13:50:38;99831.77;;;5.30;72.87
76229;BME280;65021;53.174;18.160;2023-02-01T13:55:57;99844.40;;;5.15;73.22
76229;BME280;65021;53.174;18.160;2023-02-01T13:58:36;99844.58;;;5.06;73.52
76229;BME280;65021;53.174;18.160;2023-02-01T14:03:57;99848.86;;;5.02;73.82
76229;BME280;65021;53.174;18.160;2023-02-01T14:11:53;99855.20;;;4.81;74.71
76229;BME280;65021;53.174;18.160;2023-02-01T14:19:24;99850.13;;;4.73;75.04
76229;BME280;65021;53.174;18.160;2023-02-01T14:21:52;99847.28;;;4.70;75.31
76229;BME280;65021;53.174;18.160;2023-02-01T14:24:31;99848.73;;;4.71;75.24
76229;BME280;65021;53.174;18.160;2023-02-01T14:27:16;99852.12;;;4.70;75.28
76229;BME280;65021;53.174;18.160;2023-02-01T14:29:51;99848.20;;;4.68;75.40
76229;BME280;65021;53.174;18.160;2023-02-01T14:32:26;99851.24;;;4.66;75.42
76229;BME280;65021;53.174;18.160;2023-02-01T14:35:02;99852.46;;;4.67;75.47
76229;BME280;65021;53.174;18.160;2023-02-01T14:37:31;99849.32;;;4.68;75.46
76229;BME280;65021;53.174;18.160;2023-02-01T14:42:44;99850.63;;;4.64;75.53
76229;BME280;65021;53.174;18.160;2023-02-01T14:48:39;99852.69;;;4.57;75.52
76229;BME280;65021;53.174;18.160;2023-02-01T14:50:43;99852.70;;;4.61;75.59
76229;BME280;65021;53.174;18.160;2023-02-01T14:58:34;99850.94;;;4.55;75.49
76229;BME280;65021;53.174;18.160;2023-02-01T15:01:04;99845.94;;;4.52;75.35
76229;BME280;65021;53.174;18.160;2023-02-01T15:03:53;99835.80;;;4.50;75.17
76229;BME280;65021;53.174;18.160;2023-02-01T15:06:41;99833.59;;;4.48;75.06
76229;BME280;65021;53.174;18.160;2023-02-01T15:09:16;99824.48;;;4.46;75.25
76229;BME280;65021;53.174;18.160;2023-02-01T15:17:37;99842.88;;;4.31;75.16
76229;BME280;65021;53.174;18.160;2023-02-01T15:20:15;99844.05;;;4.28;75.24
76229;BME280;65021;53.174;18.160;2023-02-01T15:22:43;99852.67;;;4.26;75.25
76229;BME280;65021;53.174;18.160;2023-02-01T15:25:22;99855.27;;;4.24;75.41
76229;BME280;65021;53.174;18.160;2023-02-01T15:27:49;99854.34;;;4.24;75.49
76229;BME280;65021;53.174;18.160;2023-02-01T15:30:27;99857.89;;;4.23;75.45
76229;BME280;65021;53.174;18.160;2023-02-01T15:33:13;99855.73;;;4.24;75.61
76229;BME280;65021;53.174;18.160;2023-02-01T15:41:20;99862.71;;;4.21;75.55
76229;BME280;65021;53.174;18.160;2023-02-01T15:46:34;99850.80;;;4.07;75.86